Keene, Virginia
Current Conditions -  °F | °C
As of 10:53 PM on Thursday 27 Nov 2014 (Local Time) from KCHO Reporting Station
Overcast Overcast  
Wind Chill: 35°   Ceiling: 5500
Heat Index: 35°   Visibility: 10mi
Dew Point: 23°   Wind: 3mph
Humidity: 61%   Direction: NA
Pressure: 30.2"   Gusts: NA
Location:  37.87°N, 78.56°W
Report Text: KCHO 280353Z VRB03KT 10SM OVC055 02/M05 A3020 RMK AO2 SLP230 T00171050
Loading
Personal Weather Stations






























Interactive Weather Map New forecast layout! Learn more

10-Day Weather Forecast

Advertisements
Track Severe Weather on mobile